TAM1457 SBMG-SBUL
Flight info
| Callsign | TAM1457 |
|---|---|
| Flight time | 0h 54m |
| Altitude | 35000 |
| Route | PAMUS DCT KOTEG DCT UDIGI |
| Aircraft | A320/M-SDE3FGHIRWY/LB1 |
Departure
| Time | 2026-05-08 18:21 |
|---|---|
| Airport | Regional de Maringá - Sílvio Name Júnior Airport (SBMG) |
Arrival
| Time | 2026-05-08 19:15 |
|---|---|
| Airport | Ten. Cel. Aviador César Bombonato Airport (SBUL) |
| Time | Latitude | Longitude | Altitude | Speed | Heading |
|---|---|---|---|---|---|
| 2026-05-08 17:54 | -23.47911 | -52.01233 | 1802 ft | 0 kts | 169° |
| 2026-05-08 18:09 | -23.47910 | -52.01234 | 1803 ft | 2 kts | 169° |
| 2026-05-08 18:09 | -23.47885 | -52.01240 | 1798 ft | 4 kts | 166° |
| 2026-05-08 18:10 | -23.47865 | -52.01242 | 1799 ft | 2 kts | 231° |
| 2026-05-08 18:10 | -23.47860 | -52.01232 | 1799 ft | 2 kts | 257° |
| 2026-05-08 18:10 | -23.47858 | -52.01221 | 1799 ft | 0 kts | 258° |
| 2026-05-08 18:13 | -23.47858 | -52.01222 | 1799 ft | 1 kts | 258° |
| 2026-05-08 18:13 | -23.47865 | -52.01258 | 1801 ft | 4 kts | 258° |
| 2026-05-08 18:13 | -23.47869 | -52.01284 | 1802 ft | 9 kts | 266° |
| 2026-05-08 18:14 | -23.47828 | -52.01363 | 1798 ft | 12 kts | 303° |
| 2026-05-08 18:14 | -23.47783 | -52.01435 | 1799 ft | 12 kts | 304° |
| 2026-05-08 18:14 | -23.47748 | -52.01517 | 1802 ft | 11 kts | 274° |
| 2026-05-08 18:14 | -23.47762 | -52.01606 | 1800 ft | 17 kts | 258° |
| 2026-05-08 18:15 | -23.47787 | -52.01744 | 1802 ft | 18 kts | 259° |
| 2026-05-08 18:15 | -23.47810 | -52.01871 | 1801 ft | 16 kts | 259° |
| 2026-05-08 18:15 | -23.47830 | -52.01983 | 1801 ft | 14 kts | 259° |
| 2026-05-08 18:15 | -23.47846 | -52.02076 | 1800 ft | 11 kts | 258° |
| 2026-05-08 18:16 | -23.47861 | -52.02154 | 1802 ft | 9 kts | 259° |
| 2026-05-08 18:16 | -23.47874 | -52.02227 | 1802 ft | 15 kts | 259° |
| 2026-05-08 18:16 | -23.47900 | -52.02368 | 1802 ft | 20 kts | 259° |
| 2026-05-08 18:16 | -23.47925 | -52.02509 | 1801 ft | 18 kts | 259° |
| 2026-05-08 18:17 | -23.47948 | -52.02635 | 1802 ft | 17 kts | 260° |
| 2026-05-08 18:17 | -23.47927 | -52.02746 | 1799 ft | 11 kts | 292° |
| 2026-05-08 18:17 | -23.47919 | -52.02768 | 1797 ft | 0 kts | 292° |
| 2026-05-08 18:18 | -23.47903 | -52.02811 | 1797 ft | 10 kts | 292° |
| 2026-05-08 18:19 | -23.47864 | -52.02865 | 1799 ft | 9 kts | 345° |
| 2026-05-08 18:19 | -23.47843 | -52.02825 | 1792 ft | 6 kts | 81° |
| 2026-05-08 18:19 | -23.47839 | -52.02803 | 1796 ft | 0 kts | 79° |
| 2026-05-08 18:20 | -23.47811 | -52.02658 | 1800 ft | 58 kts | 78° |
| 2026-05-08 18:20 | -23.47671 | -52.01938 | 1802 ft | 133 kts | 78° |
| 2026-05-08 18:21 | -23.47455 | -52.00807 | 2306 ft | 157 kts | 77° |
| 2026-05-08 18:21 | -23.47234 | -51.99636 | 3052 ft | 164 kts | 69° |
| 2026-05-08 18:21 | -23.46969 | -51.98336 | 3312 ft | 186 kts | 70° |
| 2026-05-08 18:21 | -23.46672 | -51.96878 | 3547 ft | 209 kts | 70° |
| 2026-05-08 18:22 | -23.46303 | -51.95253 | 3846 ft | 229 kts | 59° |
| 2026-05-08 18:22 | -23.45290 | -51.93994 | 4368 ft | 220 kts | 17° |
| 2026-05-08 18:22 | -23.43802 | -51.93621 | 4871 ft | 230 kts | 2° |
| 2026-05-08 18:22 | -23.42159 | -51.93205 | 5462 ft | 250 kts | 9° |
| 2026-05-08 18:23 | -23.40478 | -51.92608 | 6300 ft | 257 kts | 11° |
| 2026-05-08 18:23 | -23.38765 | -51.91962 | 7154 ft | 263 kts | 11° |
| 2026-05-08 18:23 | -23.37020 | -51.91309 | 8020 ft | 267 kts | 11° |
| 2026-05-08 18:23 | -23.35239 | -51.90663 | 8853 ft | 272 kts | 11° |
| 2026-05-08 18:24 | -23.33423 | -51.90032 | 9588 ft | 276 kts | 8° |
| 2026-05-08 18:24 | -23.31537 | -51.89880 | 10130 ft | 276 kts | 346° |
| 2026-05-08 18:24 | -23.29673 | -51.90492 | 10331 ft | 294 kts | 336° |
| 2026-05-08 18:24 | -23.27709 | -51.91333 | 10825 ft | 304 kts | 335° |
| 2026-05-08 18:25 | -23.25642 | -51.91919 | 11460 ft | 314 kts | 352° |
| 2026-05-08 18:25 | -23.23436 | -51.91618 | 12123 ft | 329 kts | 13° |
| 2026-05-08 18:25 | -23.21282 | -51.90692 | 12811 ft | 335 kts | 17° |
| 2026-05-08 18:25 | -23.19117 | -51.89727 | 13492 ft | 337 kts | 13° |
| 2026-05-08 18:26 | -23.16846 | -51.89336 | 14106 ft | 330 kts | 354° |
| 2026-05-08 18:26 | -23.14535 | -51.89257 | 14703 ft | 339 kts | 6° |
| 2026-05-08 18:26 | -23.12321 | -51.88318 | 15249 ft | 353 kts | 21° |
| 2026-05-08 18:26 | -23.10123 | -51.87107 | 15847 ft | 357 kts | 20° |
| 2026-05-08 18:27 | -23.07890 | -51.85898 | 16410 ft | 360 kts | 20° |
| 2026-05-08 18:27 | -23.06361 | -51.85085 | 16768 ft | 363 kts | 19° |
| 2026-05-08 18:27 | -23.03323 | -51.83500 | 17511 ft | 368 kts | 19° |
| 2026-05-08 18:27 | -23.00997 | -51.82300 | 18051 ft | 372 kts | 19° |
| 2026-05-08 18:28 | -22.98641 | -51.81094 | 18514 ft | 376 kts | 19° |
| 2026-05-08 18:28 | -22.96267 | -51.79879 | 18993 ft | 380 kts | 19° |
| 2026-05-08 18:28 | -22.93893 | -51.78574 | 19452 ft | 388 kts | 27° |
| 2026-05-08 18:28 | -22.91733 | -51.76822 | 19927 ft | 395 kts | 32° |
| 2026-05-08 18:29 | -22.89562 | -51.74976 | 20403 ft | 399 kts | 32° |
| 2026-05-08 18:29 | -22.87374 | -51.73104 | 20848 ft | 402 kts | 32° |
| 2026-05-08 18:29 | -22.85170 | -51.71211 | 21296 ft | 406 kts | 32° |
| 2026-05-08 18:29 | -22.82948 | -51.69302 | 21742 ft | 409 kts | 32° |
| 2026-05-08 18:30 | -22.80707 | -51.67382 | 22172 ft | 412 kts | 32° |
| 2026-05-08 18:30 | -22.78446 | -51.65450 | 22596 ft | 416 kts | 32° |
| 2026-05-08 18:30 | -22.76167 | -51.63503 | 23033 ft | 419 kts | 32° |
| 2026-05-08 18:30 | -22.73900 | -51.61568 | 23438 ft | 422 kts | 32° |
| 2026-05-08 18:31 | -22.71582 | -51.59594 | 23777 ft | 425 kts | 31° |
| 2026-05-08 18:31 | -22.69249 | -51.57607 | 24146 ft | 428 kts | 31° |
| 2026-05-08 18:31 | -22.66905 | -51.55611 | 24510 ft | 430 kts | 31° |
| 2026-05-08 18:31 | -22.64552 | -51.53607 | 24867 ft | 432 kts | 31° |
| 2026-05-08 18:32 | -22.62176 | -51.51582 | 25218 ft | 435 kts | 31° |
| 2026-05-08 18:32 | -22.59795 | -51.49553 | 25578 ft | 437 kts | 31° |
| 2026-05-08 18:32 | -22.57417 | -51.47530 | 25932 ft | 439 kts | 31° |
| 2026-05-08 18:32 | -22.55016 | -51.45489 | 26284 ft | 441 kts | 31° |
| 2026-05-08 18:33 | -22.52591 | -51.43428 | 26628 ft | 443 kts | 31° |
| 2026-05-08 18:33 | -22.50196 | -51.41392 | 26950 ft | 446 kts | 31° |
| 2026-05-08 18:33 | -22.47751 | -51.39315 | 27308 ft | 448 kts | 31° |
| 2026-05-08 18:33 | -22.45295 | -51.37230 | 27659 ft | 450 kts | 31° |
| 2026-05-08 18:34 | -22.42831 | -51.35135 | 28011 ft | 452 kts | 31° |
| 2026-05-08 18:34 | -22.40355 | -51.33030 | 28359 ft | 454 kts | 31° |
| 2026-05-08 18:34 | -22.37868 | -51.30918 | 28711 ft | 456 kts | 31° |
| 2026-05-08 18:34 | -22.35365 | -51.28798 | 29050 ft | 458 kts | 31° |
| 2026-05-08 18:35 | -22.32850 | -51.26668 | 29379 ft | 461 kts | 31° |
| 2026-05-08 18:35 | -22.30322 | -51.24528 | 29688 ft | 463 kts | 31° |
| 2026-05-08 18:35 | -22.27783 | -51.22381 | 30006 ft | 464 kts | 31° |
| 2026-05-08 18:35 | -22.25232 | -51.20228 | 30255 ft | 466 kts | 31° |
| 2026-05-08 18:36 | -22.22668 | -51.18066 | 30501 ft | 469 kts | 31° |
| 2026-05-08 18:36 | -22.20125 | -51.15925 | 30739 ft | 471 kts | 31° |
| 2026-05-08 18:36 | -22.17538 | -51.13745 | 30981 ft | 473 kts | 31° |
| 2026-05-08 18:36 | -22.14946 | -51.11560 | 31226 ft | 475 kts | 31° |
| 2026-05-08 18:37 | -22.12348 | -51.09365 | 31557 ft | 474 kts | 31° |
| 2026-05-08 18:37 | -22.09748 | -51.07165 | 31914 ft | 474 kts | 31° |
| 2026-05-08 18:37 | -22.07158 | -51.04974 | 32259 ft | 473 kts | 31° |
| 2026-05-08 18:37 | -22.04566 | -51.02783 | 32593 ft | 473 kts | 31° |
| 2026-05-08 18:38 | -22.01980 | -51.00602 | 32930 ft | 473 kts | 31° |
| 2026-05-08 18:38 | -21.99389 | -50.98422 | 33272 ft | 472 kts | 31° |
| 2026-05-08 18:38 | -21.96798 | -50.96245 | 33604 ft | 472 kts | 31° |
| 2026-05-08 18:38 | -21.94243 | -50.94099 | 33924 ft | 472 kts | 31° |
| 2026-05-08 18:39 | -21.91654 | -50.91927 | 34197 ft | 472 kts | 31° |
| 2026-05-08 18:39 | -21.89064 | -50.89754 | 34460 ft | 472 kts | 31° |
| 2026-05-08 18:39 | -21.86473 | -50.87578 | 34710 ft | 472 kts | 31° |
| 2026-05-08 18:39 | -21.83881 | -50.85395 | 34860 ft | 473 kts | 31° |
| 2026-05-08 18:40 | -21.78752 | -50.81074 | 34888 ft | 465 kts | 31° |
| 2026-05-08 18:40 | -21.73646 | -50.76807 | 34890 ft | 464 kts | 31° |
| 2026-05-08 18:41 | -21.68540 | -50.72548 | 34890 ft | 465 kts | 31° |
| 2026-05-08 18:41 | -21.63466 | -50.68316 | 34888 ft | 465 kts | 31° |
| 2026-05-08 18:42 | -21.58364 | -50.64055 | 34885 ft | 465 kts | 31° |
| 2026-05-08 18:42 | -21.53260 | -50.59784 | 34886 ft | 465 kts | 31° |
| 2026-05-08 18:43 | -21.48155 | -50.55516 | 34883 ft | 465 kts | 31° |
| 2026-05-08 18:43 | -21.43043 | -50.51250 | 34885 ft | 465 kts | 31° |
| 2026-05-08 18:44 | -21.37935 | -50.46993 | 34891 ft | 465 kts | 31° |
| 2026-05-08 18:44 | -21.32849 | -50.42768 | 34892 ft | 465 kts | 31° |
| 2026-05-08 18:45 | -21.27732 | -50.38520 | 34896 ft | 466 kts | 31° |
| 2026-05-08 18:45 | -21.22605 | -50.34267 | 34900 ft | 466 kts | 31° |
| 2026-05-08 18:46 | -21.17482 | -50.30004 | 34896 ft | 466 kts | 31° |
| 2026-05-08 18:46 | -21.12384 | -50.25769 | 34895 ft | 467 kts | 31° |
| 2026-05-08 18:47 | -21.07243 | -50.21522 | 34890 ft | 467 kts | 31° |
| 2026-05-08 18:47 | -21.02094 | -50.17270 | 34883 ft | 468 kts | 31° |
| 2026-05-08 18:48 | -20.96946 | -50.13007 | 34873 ft | 468 kts | 31° |
| 2026-05-08 18:48 | -20.91828 | -50.08779 | 34872 ft | 468 kts | 32° |
| 2026-05-08 18:49 | -20.86666 | -50.04525 | 34878 ft | 469 kts | 32° |
| 2026-05-08 18:49 | -20.81502 | -50.00268 | 34880 ft | 469 kts | 32° |
| 2026-05-08 18:50 | -20.76331 | -49.96004 | 34886 ft | 469 kts | 32° |
| 2026-05-08 18:50 | -20.71165 | -49.91748 | 34886 ft | 469 kts | 32° |
| 2026-05-08 18:51 | -20.65987 | -49.87501 | 34885 ft | 470 kts | 32° |
| 2026-05-08 18:51 | -20.60839 | -49.83278 | 34893 ft | 470 kts | 32° |
| 2026-05-08 18:52 | -20.55658 | -49.79024 | 34894 ft | 470 kts | 32° |
| 2026-05-08 18:52 | -20.50479 | -49.74776 | 34890 ft | 470 kts | 32° |
| 2026-05-08 18:53 | -20.45295 | -49.70523 | 34908 ft | 470 kts | 32° |
| 2026-05-08 18:53 | -20.40115 | -49.66281 | 34904 ft | 470 kts | 32° |
| 2026-05-08 18:54 | -20.34931 | -49.62038 | 34910 ft | 470 kts | 32° |
| 2026-05-08 18:54 | -20.29745 | -49.57806 | 34903 ft | 470 kts | 32° |
| 2026-05-08 18:55 | -20.22001 | -49.51480 | 34905 ft | 470 kts | 32° |
| 2026-05-08 18:55 | -20.19411 | -49.49369 | 34547 ft | 471 kts | 32° |
| 2026-05-08 18:56 | -20.16811 | -49.47251 | 33947 ft | 470 kts | 32° |
| 2026-05-08 18:56 | -20.14217 | -49.45139 | 33341 ft | 468 kts | 32° |
| 2026-05-08 18:56 | -20.11643 | -49.43037 | 32793 ft | 465 kts | 33° |
| 2026-05-08 18:56 | -20.09087 | -49.40949 | 32236 ft | 462 kts | 33° |
| 2026-05-08 18:57 | -20.06542 | -49.38878 | 31685 ft | 459 kts | 33° |
| 2026-05-08 18:57 | -20.04868 | -49.37519 | 31330 ft | 457 kts | 33° |
| 2026-05-08 18:57 | -20.01500 | -49.34783 | 30613 ft | 454 kts | 33° |
| 2026-05-08 18:57 | -19.98999 | -49.32747 | 30088 ft | 451 kts | 33° |
| 2026-05-08 18:58 | -19.96512 | -49.30722 | 29550 ft | 455 kts | 33° |
| 2026-05-08 18:58 | -19.93968 | -49.28663 | 29006 ft | 473 kts | 33° |
| 2026-05-08 18:58 | -19.91332 | -49.26532 | 28488 ft | 477 kts | 33° |
| 2026-05-08 18:58 | -19.88697 | -49.24399 | 27963 ft | 477 kts | 33° |
| 2026-05-08 18:59 | -19.86041 | -49.22247 | 27426 ft | 485 kts | 34° |
| 2026-05-08 18:59 | -19.83333 | -49.20053 | 26881 ft | 491 kts | 34° |
| 2026-05-08 18:59 | -19.80605 | -49.17842 | 26298 ft | 497 kts | 34° |
| 2026-05-08 18:59 | -19.77858 | -49.15614 | 25752 ft | 496 kts | 34° |
| 2026-05-08 19:00 | -19.75122 | -49.13396 | 25142 ft | 496 kts | 34° |
| 2026-05-08 19:00 | -19.72369 | -49.11168 | 24523 ft | 497 kts | 34° |
| 2026-05-08 19:00 | -19.69665 | -49.08979 | 23910 ft | 493 kts | 34° |
| 2026-05-08 19:00 | -19.66929 | -49.06767 | 23243 ft | 496 kts | 34° |
| 2026-05-08 19:01 | -19.64191 | -49.04555 | 22597 ft | 495 kts | 34° |
| 2026-05-08 19:01 | -19.61461 | -49.02351 | 22143 ft | 492 kts | 34° |
| 2026-05-08 19:01 | -19.58741 | -49.00155 | 21847 ft | 490 kts | 35° |
| 2026-05-08 19:01 | -19.56039 | -48.97975 | 21661 ft | 488 kts | 35° |
| 2026-05-08 19:02 | -19.53366 | -48.95813 | 21480 ft | 470 kts | 35° |
| 2026-05-08 19:02 | -19.50858 | -48.93776 | 21207 ft | 438 kts | 35° |
| 2026-05-08 19:02 | -19.48522 | -48.91878 | 21058 ft | 408 kts | 34° |
| 2026-05-08 19:02 | -19.46335 | -48.90108 | 20797 ft | 385 kts | 34° |
| 2026-05-08 19:03 | -19.44237 | -48.88418 | 20202 ft | 375 kts | 34° |
| 2026-05-08 19:03 | -19.42177 | -48.86764 | 19498 ft | 369 kts | 34° |
| 2026-05-08 19:03 | -19.40146 | -48.85137 | 18799 ft | 364 kts | 34° |
| 2026-05-08 19:03 | -19.38109 | -48.83505 | 18070 ft | 359 kts | 34° |
| 2026-05-08 19:04 | -19.36155 | -48.81939 | 17304 ft | 355 kts | 35° |
| 2026-05-08 19:04 | -19.34197 | -48.80369 | 16559 ft | 351 kts | 35° |
| 2026-05-08 19:04 | -19.32268 | -48.78819 | 15838 ft | 346 kts | 35° |
| 2026-05-08 19:04 | -19.30360 | -48.77284 | 15178 ft | 342 kts | 35° |
| 2026-05-08 19:05 | -19.28495 | -48.75783 | 14752 ft | 335 kts | 35° |
| 2026-05-08 19:05 | -19.26640 | -48.74290 | 14346 ft | 335 kts | 36° |
| 2026-05-08 19:05 | -19.24784 | -48.72799 | 13960 ft | 335 kts | 36° |
| 2026-05-08 19:05 | -19.22926 | -48.71308 | 13547 ft | 335 kts | 36° |
| 2026-05-08 19:06 | -19.21077 | -48.69826 | 13166 ft | 332 kts | 35° |
| 2026-05-08 19:06 | -19.19243 | -48.68355 | 12775 ft | 331 kts | 36° |
| 2026-05-08 19:06 | -19.17509 | -48.66820 | 12375 ft | 330 kts | 46° |
| 2026-05-08 19:06 | -19.16171 | -48.64854 | 11995 ft | 331 kts | 60° |
| 2026-05-08 19:07 | -19.15125 | -48.62693 | 11508 ft | 328 kts | 60° |
| 2026-05-08 19:07 | -19.14097 | -48.60583 | 11056 ft | 317 kts | 60° |
| 2026-05-08 19:07 | -19.13091 | -48.58539 | 10650 ft | 313 kts | 60° |
| 2026-05-08 19:07 | -19.12079 | -48.56497 | 10344 ft | 311 kts | 60° |
| 2026-05-08 19:08 | -19.11086 | -48.54486 | 9950 ft | 301 kts | 60° |
| 2026-05-08 19:08 | -19.10135 | -48.52559 | 9397 ft | 297 kts | 60° |
| 2026-05-08 19:08 | -19.09191 | -48.50642 | 8986 ft | 294 kts | 59° |
| 2026-05-08 19:08 | -19.08246 | -48.48726 | 8582 ft | 294 kts | 59° |
| 2026-05-08 19:09 | -19.07303 | -48.46817 | 8237 ft | 291 kts | 59° |
| 2026-05-08 19:09 | -19.06376 | -48.44943 | 7710 ft | 286 kts | 59° |
| 2026-05-08 19:09 | -19.05468 | -48.43102 | 7221 ft | 278 kts | 59° |
| 2026-05-08 19:09 | -19.04618 | -48.41301 | 6859 ft | 268 kts | 66° |
| 2026-05-08 19:10 | -19.04191 | -48.39458 | 6797 ft | 251 kts | 81° |
| 2026-05-08 19:10 | -19.04198 | -48.37662 | 6713 ft | 238 kts | 89° |
| 2026-05-08 19:10 | -19.04276 | -48.35942 | 6607 ft | 231 kts | 89° |
| 2026-05-08 19:10 | -19.04346 | -48.34287 | 6515 ft | 225 kts | 90° |
| 2026-05-08 19:11 | -19.04416 | -48.32656 | 6410 ft | 219 kts | 89° |
| 2026-05-08 19:11 | -19.04393 | -48.31077 | 6321 ft | 212 kts | 73° |
| 2026-05-08 19:11 | -19.03763 | -48.29709 | 6161 ft | 207 kts | 46° |
| 2026-05-08 19:11 | -19.02593 | -48.28836 | 5854 ft | 208 kts | 21° |
| 2026-05-08 19:12 | -19.01261 | -48.28253 | 5603 ft | 206 kts | 21° |
| 2026-05-08 19:12 | -18.99949 | -48.27682 | 5340 ft | 203 kts | 20° |
| 2026-05-08 19:12 | -18.98661 | -48.27117 | 5093 ft | 199 kts | 20° |
| 2026-05-08 19:12 | -18.97391 | -48.26559 | 4842 ft | 196 kts | 22° |
| 2026-05-08 19:13 | -18.96163 | -48.26020 | 4586 ft | 184 kts | 21° |
| 2026-05-08 19:13 | -18.95034 | -48.25523 | 4368 ft | 168 kts | 20° |
| 2026-05-08 19:13 | -18.94011 | -48.25073 | 4167 ft | 152 kts | 21° |
| 2026-05-08 19:13 | -18.93060 | -48.24656 | 3963 ft | 145 kts | 23° |
| 2026-05-08 19:14 | -18.92148 | -48.24255 | 3770 ft | 143 kts | 22° |
| 2026-05-08 19:14 | -18.91226 | -48.23851 | 3565 ft | 142 kts | 26° |
| 2026-05-08 19:14 | -18.90306 | -48.23447 | 3371 ft | 143 kts | 25° |
| 2026-05-08 19:14 | -18.89403 | -48.23049 | 3169 ft | 142 kts | 25° |
| 2026-05-08 19:15 | -18.88551 | -48.22670 | 3109 ft | 105 kts | 22° |
| 2026-05-08 19:15 | -18.88141 | -48.22490 | 3107 ft | 36 kts | 24° |
| 2026-05-08 19:15 | -18.87925 | -48.22396 | 3108 ft | 31 kts | 21° |
| 2026-05-08 19:15 | -18.87733 | -48.22313 | 3110 ft | 26 kts | 23° |
| 2026-05-08 19:16 | -18.87668 | -48.22284 | 3110 ft | 3 kts | 316° |
| 2026-05-08 19:16 | -18.87679 | -48.22291 | 3110 ft | 6 kts | 207° |
| 2026-05-08 19:16 | -18.87773 | -48.22333 | 3110 ft | 16 kts | 203° |
| 2026-05-08 19:16 | -18.87876 | -48.22379 | 3108 ft | 16 kts | 203° |
| 2026-05-08 19:17 | -18.87970 | -48.22420 | 3108 ft | 14 kts | 201° |
| 2026-05-08 19:17 | -18.88056 | -48.22458 | 3108 ft | 14 kts | 204° |
| 2026-05-08 19:17 | -18.88190 | -48.22517 | 3107 ft | 24 kts | 202° |
| 2026-05-08 19:17 | -18.88339 | -48.22581 | 3109 ft | 22 kts | 202° |
| 2026-05-08 19:18 | -18.88470 | -48.22640 | 3109 ft | 19 kts | 203° |
| 2026-05-08 19:18 | -18.88587 | -48.22695 | 3109 ft | 17 kts | 204° |
| 2026-05-08 19:18 | -18.88692 | -48.22741 | 3109 ft | 15 kts | 202° |
| 2026-05-08 19:18 | -18.88769 | -48.22803 | 3108 ft | 14 kts | 242° |
| 2026-05-08 19:19 | -18.88805 | -48.22893 | 3108 ft | 13 kts | 243° |
| 2026-05-08 19:19 | -18.88872 | -48.22938 | 3108 ft | 11 kts | 202° |
| 2026-05-08 19:19 | -18.88937 | -48.22966 | 3108 ft | 9 kts | 202° |
| 2026-05-08 19:19 | -18.88981 | -48.22996 | 3107 ft | 5 kts | 263° |
| 2026-05-08 19:20 | -18.88977 | -48.23010 | 3108 ft | 1 kts | 292° |
| 2026-05-08 19:20 | -18.88976 | -48.23012 | 3108 ft | 1 kts | 292° |
| 2026-05-08 19:20 | -18.88969 | -48.23032 | 3108 ft | 0 kts | 292° |
| 2026-05-08 19:30 | -18.88969 | -48.23031 | 3108 ft | 0 kts | 292° |